createdAt,value
2023-03-11T13:53:09.818Z,97381.59
2023-03-11T13:54:09.859Z,97379.09
2023-03-11T13:55:09.845Z,97376.84
2023-03-11T13:56:09.948Z,97382.91
2023-03-11T13:57:09.945Z,97375.15
2023-03-11T13:58:09.927Z,97376.09
2023-03-11T13:59:09.908Z,97377.71
2023-03-11T14:00:09.945Z,97375.77
2023-03-11T14:01:09.940Z,97376.05
2023-03-11T14:02:09.934Z,97372.67
2023-03-11T14:03:09.908Z,97374.09
2023-03-11T14:04:09.943Z,97380.38
2023-03-11T14:05:09.897Z,97373.31
2023-03-11T14:06:09.903Z,97376.48
2023-03-11T14:07:09.875Z,97381.73
2023-03-11T14:08:09.838Z,97379.88
2023-03-11T14:09:09.778Z,97370.06
2023-03-11T14:10:09.747Z,97369.52
2023-03-11T14:11:09.706Z,97373.23
2023-03-11T14:12:09.646Z,97376.75
2023-03-11T14:13:09.594Z,97381.66
2023-03-11T14:14:09.548Z,97382.30
2023-03-11T14:15:09.505Z,97380.39
2023-03-11T14:16:09.521Z,97380.23
2023-03-11T14:17:09.462Z,97385.91
2023-03-11T14:18:09.505Z,97385.27
2023-03-11T14:19:09.453Z,97385.95
2023-03-11T14:20:09.546Z,97383.73
2023-03-11T14:21:09.364Z,97385.92
2023-03-11T14:22:09.299Z,97385.34
2023-03-11T14:23:11.874Z,97398.00
2023-03-11T14:24:09.346Z,97392.22
2023-03-11T14:25:09.296Z,97398.31
2023-03-11T14:26:09.246Z,97394.16
2023-03-11T14:27:09.198Z,97392.01
2023-03-11T14:28:09.187Z,97396.64
2023-03-11T14:29:09.123Z,97394.23
2023-03-11T14:30:09.202Z,97386.78
2023-03-11T14:31:09.136Z,97381.31
2023-03-11T14:32:09.191Z,97385.57
2023-03-11T14:33:09.034Z,97382.73
2023-03-11T14:34:08.987Z,97385.70
2023-03-11T14:35:08.947Z,97392.45
2023-03-11T14:36:09.932Z,97393.88
2023-03-11T14:37:08.869Z,97395.52
2023-03-11T14:38:08.830Z,97397.62
2023-03-11T14:39:08.754Z,97398.75
2023-03-11T14:40:08.735Z,97404.42
2023-03-11T14:41:08.657Z,97398.43
2023-03-11T14:42:08.630Z,97397.92
2023-03-11T14:43:08.624Z,97382.83
2023-03-11T14:44:08.555Z,97381.17
2023-03-11T14:45:08.591Z,97381.89
2023-03-11T14:46:08.726Z,97377.11
2023-03-11T14:47:08.549Z,97377.45
2023-03-11T14:48:08.496Z,97367.89
2023-03-11T14:49:08.427Z,97371.41
2023-03-11T14:50:08.400Z,97367.05
2023-03-11T14:51:08.329Z,97372.30
2023-03-11T14:52:08.288Z,97373.29
2023-03-11T14:53:08.195Z,97380.77
2023-03-11T14:54:08.142Z,97370.86
2023-03-11T14:55:08.086Z,97365.14
2023-03-11T14:56:08.037Z,97364.09
2023-03-11T14:57:08.009Z,97366.52
2023-03-11T14:58:07.984Z,97369.99
2023-03-11T14:59:09.647Z,97370.59
2023-03-11T15:00:07.891Z,97369.20
2023-03-11T15:01:07.894Z,97370.91
2023-03-11T15:02:07.785Z,97375.31
2023-03-11T15:03:07.773Z,97371.92
2023-03-11T15:04:07.758Z,97374.60
2023-03-11T15:05:07.694Z,97381.04
2023-03-11T15:06:07.655Z,97379.61
2023-03-11T15:07:07.568Z,97383.45
2023-03-11T15:08:07.645Z,97379.73
2023-03-11T15:09:07.599Z,97377.48
2023-03-11T15:10:07.523Z,97379.50
2023-03-11T15:11:07.466Z,97369.57
2023-03-11T15:12:07.422Z,97366.52
2023-03-11T15:13:07.375Z,97375.88
2023-03-11T15:14:07.307Z,97374.98
2023-03-11T15:15:07.347Z,97374.10
2023-03-11T15:16:07.288Z,97372.70
2023-03-11T15:17:07.223Z,97377.27
2023-03-11T15:18:08.191Z,97374.23
2023-03-11T15:19:07.282Z,97378.56
2023-03-11T15:20:07.139Z,97382.26
2023-03-11T15:21:07.092Z,97381.05
2023-03-11T15:22:07.045Z,97382.01
2023-03-11T15:23:06.961Z,97379.22
2023-03-11T15:24:07.028Z,97378.17
2023-03-11T15:25:06.952Z,97382.14
2023-03-11T15:26:07.037Z,97383.03
2023-03-11T15:27:06.993Z,97385.82
2023-03-11T15:28:06.919Z,97386.08
2023-03-11T15:29:07.180Z,97385.48
2023-03-11T15:30:06.845Z,97383.47
2023-03-11T15:31:06.788Z,97386.53
2023-03-11T15:32:06.757Z,97387.66
2023-03-11T15:33:06.673Z,97389.06
2023-03-11T15:34:06.654Z,97390.53
2023-03-11T15:35:06.574Z,97392.62
2023-03-11T15:36:06.673Z,97398.72
2023-03-11T15:37:06.535Z,97399.86
2023-03-11T15:38:06.570Z,97394.77
2023-03-11T15:39:06.536Z,97396.08
2023-03-11T15:40:06.496Z,97404.67
2023-03-11T15:41:06.415Z,97405.21
2023-03-11T15:42:06.495Z,97405.31
2023-03-11T15:43:06.420Z,97405.60
2023-03-11T15:44:06.377Z,97408.75
2023-03-11T15:45:06.329Z,97411.61
2023-03-11T15:46:06.298Z,97415.19
2023-03-11T15:47:06.248Z,97410.84
2023-03-11T15:48:06.181Z,97420.77
2023-03-11T15:49:06.149Z,97412.34
2023-03-11T15:50:06.106Z,97414.33
2023-03-11T15:51:06.056Z,97420.08
2023-03-11T15:52:05.979Z,97420.02
2023-03-11T15:53:05.907Z,97413.58
2023-03-11T15:54:05.852Z,97409.09
2023-03-11T15:55:05.807Z,97410.77
2023-03-11T15:56:08.162Z,97409.02
2023-03-11T15:57:05.705Z,97409.70
2023-03-11T15:58:05.645Z,97417.77
2023-03-11T15:59:05.619Z,97422.23
2023-03-11T16:00:05.555Z,97424.05
2023-03-11T16:01:05.483Z,97416.52
2023-03-11T16:02:05.438Z,97416.31
2023-03-11T16:03:05.375Z,97415.06
2023-03-11T16:04:05.520Z,97418.80
2023-03-11T16:05:05.471Z,97423.23
2023-03-11T16:06:05.365Z,97419.34
2023-03-11T16:07:08.376Z,97421.42
2023-03-11T16:08:05.292Z,97422.35
2023-03-11T16:09:05.207Z,97426.48
2023-03-11T16:10:05.342Z,97433.22
2023-03-11T16:11:05.225Z,97427.31
2023-03-11T16:12:05.196Z,97435.96
2023-03-11T16:13:05.115Z,97443.25
2023-03-11T16:14:05.085Z,97441.38
2023-03-11T16:15:05.013Z,97440.66
2023-03-11T16:16:05.105Z,97442.05
2023-03-11T16:17:04.904Z,97444.00
2023-03-11T16:18:04.886Z,97447.28
2023-03-11T16:19:04.786Z,97450.20
2023-03-11T16:20:04.816Z,97447.78
2023-03-11T16:21:04.772Z,97447.33
2023-03-11T16:22:04.721Z,97444.98
2023-03-11T16:23:04.705Z,97441.07
2023-03-11T16:24:04.654Z,97439.80
2023-03-11T16:25:04.568Z,97438.66
2023-03-11T16:26:04.604Z,97442.30
2023-03-11T16:27:04.536Z,97437.34
2023-03-11T16:28:04.487Z,97438.22
2023-03-11T16:29:18.203Z,97436.39
2023-03-11T16:30:04.348Z,97438.30
2023-03-11T16:31:04.350Z,97438.12
2023-03-11T16:32:04.283Z,97435.68
2023-03-11T16:33:05.210Z,97433.96
2023-03-11T16:34:04.242Z,97429.53
2023-03-11T16:35:04.181Z,97428.21
2023-03-11T16:36:04.211Z,97429.62
2023-03-11T16:37:04.064Z,97428.16
2023-03-11T16:38:03.996Z,97431.72
2023-03-11T16:39:03.962Z,97431.36
2023-03-11T16:40:03.889Z,97434.58
2023-03-11T16:41:03.816Z,97426.34
2023-03-11T16:42:03.762Z,97437.30
2023-03-11T16:43:03.706Z,97430.66
2023-03-11T16:44:03.603Z,97434.33
2023-03-11T16:45:04.178Z,97434.50
2023-03-11T16:46:03.584Z,97434.50
2023-03-11T16:47:03.534Z,97441.52
2023-03-11T16:48:03.446Z,97443.59
2023-03-11T16:49:03.483Z,97443.42
2023-03-11T16:50:03.421Z,97442.90
2023-03-11T16:51:03.412Z,97446.62
2023-03-11T16:52:03.434Z,97448.20
2023-03-11T16:53:03.265Z,97448.11
2023-03-11T16:54:03.265Z,97448.20
2023-03-11T16:55:03.232Z,97446.72
2023-03-11T16:56:03.244Z,97445.92
2023-03-11T16:57:03.198Z,97444.37
2023-03-11T16:58:03.188Z,97447.68
2023-03-11T16:59:03.131Z,97454.44
2023-03-11T17:00:03.091Z,97449.83
2023-03-11T17:01:03.060Z,97448.42
2023-03-11T17:02:03.132Z,97448.58
2023-03-11T17:03:03.028Z,97453.92
2023-03-11T17:04:02.942Z,97458.58
2023-03-11T17:05:02.992Z,97458.38
2023-03-11T17:06:02.878Z,97454.00
2023-03-11T17:07:02.819Z,97454.73
2023-03-11T17:08:02.780Z,97454.98
2023-03-11T17:09:02.711Z,97452.08
2023-03-11T17:10:02.671Z,97465.08
2023-03-11T17:11:02.593Z,97458.89
2023-03-11T17:12:02.535Z,97462.84
2023-03-11T17:13:02.503Z,97459.75
2023-03-11T17:14:15.625Z,97462.84
2023-03-11T17:15:02.365Z,97462.89
2023-03-11T17:16:02.402Z,97465.45
2023-03-11T17:17:02.324Z,97470.59
2023-03-11T17:18:02.288Z,97474.80
2023-03-11T17:19:02.213Z,97472.78
2023-03-11T17:20:02.186Z,97471.52
2023-03-11T17:21:02.154Z,97471.76
2023-03-11T17:22:02.085Z,97480.23
2023-03-11T17:23:02.010Z,97480.97
2023-03-11T17:24:01.957Z,97481.83
2023-03-11T17:25:01.906Z,97489.70
2023-03-11T17:26:01.890Z,97487.84
2023-03-11T17:27:01.825Z,97494.16
2023-03-11T17:28:01.758Z,97493.98
2023-03-11T17:29:01.763Z,97498.09
2023-03-11T17:30:01.722Z,97497.30
2023-03-11T17:31:01.673Z,97496.69
2023-03-11T17:32:01.627Z,97498.99
2023-03-11T17:33:01.619Z,97501.42
2023-03-11T17:34:01.567Z,97507.38
2023-03-11T17:35:01.527Z,97505.62
2023-03-11T17:36:01.477Z,97512.45
2023-03-11T17:37:01.426Z,97510.99
2023-03-11T17:38:01.376Z,97512.17
2023-03-11T17:39:01.317Z,97519.62
2023-03-11T17:40:01.267Z,97512.40
2023-03-11T17:41:01.188Z,97511.58
2023-03-11T17:42:01.132Z,97514.62
2023-03-11T17:43:01.070Z,97516.81
2023-03-11T17:44:01.035Z,97519.29
2023-03-11T17:45:00.966Z,97520.95
2023-03-11T17:46:00.905Z,97519.37
2023-03-11T17:47:00.959Z,97521.42
2023-03-11T17:48:00.850Z,97530.02
2023-03-11T17:49:00.817Z,97527.42
2023-03-11T17:50:00.768Z,97528.95
2023-03-11T17:51:00.716Z,97529.55
2023-03-11T17:52:00.722Z,97536.57
2023-03-11T17:53:00.667Z,97531.91
2023-03-11T17:54:00.604Z,97538.75
2023-03-11T17:55:00.693Z,97542.02
2023-03-11T17:56:00.658Z,97545.95
2023-03-11T17:57:00.605Z,97549.30
2023-03-11T17:58:00.547Z,97545.31
2023-03-11T17:59:00.559Z,97551.31
2023-03-11T18:00:00.555Z,97544.60
2023-03-11T18:01:00.625Z,97549.62
2023-03-11T18:02:00.531Z,97549.09
2023-03-11T18:03:00.490Z,97546.68
2023-03-11T18:04:00.566Z,97546.33
2023-03-11T18:05:00.428Z,97552.58
2023-03-11T18:06:00.369Z,97554.31
2023-03-11T18:07:00.333Z,97551.95
2023-03-11T18:08:00.269Z,97554.38
2023-03-11T18:09:00.241Z,97555.43
2023-03-11T18:10:00.227Z,97547.97
2023-03-11T18:11:00.190Z,97556.12
2023-03-11T18:12:00.137Z,97552.03
2023-03-11T18:13:00.153Z,97552.91
2023-03-11T18:14:00.098Z,97554.02
2023-03-11T18:15:00.035Z,97561.25
2023-03-11T18:15:59.996Z,97565.48
2023-03-11T18:16:59.927Z,97556.98
2023-03-11T18:17:59.868Z,97558.80
2023-03-11T18:18:59.912Z,97557.58
2023-03-11T18:19:59.876Z,97560.88
2023-03-11T18:20:59.834Z,97565.86
2023-03-11T18:21:59.763Z,97565.83
2023-03-11T18:22:59.698Z,97570.09
2023-03-11T18:23:59.642Z,97567.84
2023-03-11T18:24:59.584Z,97572.34
2023-03-11T18:25:59.534Z,97573.46
2023-03-11T18:26:59.506Z,97575.39
2023-03-11T18:27:59.455Z,97583.34
2023-03-11T18:28:59.403Z,97578.39
2023-03-11T18:29:59.469Z,97583.25
2023-03-11T18:30:59.387Z,97587.86
2023-03-11T18:31:59.542Z,97582.33
2023-03-11T18:32:59.434Z,97578.31
2023-03-11T18:33:59.374Z,97581.78
2023-03-11T18:34:59.219Z,97585.50
2023-03-11T18:35:59.266Z,97580.47
2023-03-11T18:36:59.197Z,97582.13
2023-03-11T18:37:59.231Z,97584.78
2023-03-11T18:38:59.220Z,97585.16
2023-03-11T18:39:59.166Z,97583.23
2023-03-11T18:40:59.157Z,97584.24
2023-03-11T18:41:59.197Z,97590.66
2023-03-11T18:42:59.157Z,97589.38
2023-03-11T18:43:59.135Z,97590.41
2023-03-11T18:44:59.072Z,97593.02
2023-03-11T18:45:59.088Z,97591.80
2023-03-11T18:46:59.015Z,97590.93
2023-03-11T18:47:58.991Z,97595.32
2023-03-11T18:48:59.029Z,97598.19
2023-03-11T18:49:58.928Z,97603.72
2023-03-11T18:50:58.900Z,97600.17
2023-03-11T18:51:58.900Z,97592.25
2023-03-11T18:52:58.852Z,97594.84
2023-03-11T18:53:58.816Z,97600.59
2023-03-11T18:54:58.778Z,97604.31
2023-03-11T18:55:58.719Z,97606.89
2023-03-11T18:56:58.740Z,97610.66
2023-03-11T18:57:58.756Z,97604.64
2023-03-11T18:58:58.716Z,97607.93
2023-03-11T18:59:58.654Z,97612.59
2023-03-11T19:00:58.647Z,97614.47
2023-03-11T19:01:58.645Z,97608.18
2023-03-11T19:02:58.662Z,97614.08
2023-03-11T19:03:58.732Z,97613.53
2023-03-11T19:04:58.785Z,97606.52
2023-03-11T19:05:58.691Z,97615.11
2023-03-11T19:06:58.873Z,97609.12
2023-03-11T19:07:58.606Z,97608.95
2023-03-11T19:08:58.622Z,97608.95
2023-03-11T19:09:58.599Z,97614.84
2023-03-11T19:10:58.569Z,97614.77
2023-03-11T19:11:58.635Z,97614.86
2023-03-11T19:12:58.666Z,97617.84
2023-03-11T19:13:58.620Z,97617.72
2023-03-11T19:14:58.510Z,97617.64
2023-03-11T19:15:58.556Z,97618.95
2023-03-11T19:16:58.699Z,97616.84
2023-03-11T19:18:06.594Z,97617.05
2023-03-11T19:18:58.577Z,97616.30
2023-03-11T19:19:58.481Z,97615.19
2023-03-11T19:20:58.524Z,97617.37
2023-03-11T19:21:58.427Z,97615.44
2023-03-11T19:22:58.571Z,97618.83
2023-03-11T19:23:58.407Z,97621.86
2023-03-11T19:24:59.317Z,97617.55
2023-03-11T19:26:03.079Z,97612.73
2023-03-11T19:26:59.324Z,97621.86
2023-03-11T19:27:58.614Z,97622.20
2023-03-11T19:28:58.263Z,97622.05
2023-03-11T19:29:58.358Z,97620.64
2023-03-11T19:30:59.191Z,97620.54
2023-03-11T19:31:58.146Z,97620.37
2023-03-11T19:32:58.209Z,97625.52
2023-03-11T19:33:58.228Z,97622.97
2023-03-11T19:34:58.106Z,97624.11
2023-03-11T19:35:58.126Z,97626.95
2023-03-11T19:36:58.055Z,97628.07
2023-03-11T19:37:58.076Z,97629.09
2023-03-11T19:38:58.162Z,97630.84
2023-03-11T19:39:58.120Z,97628.67
2023-03-11T19:40:58.128Z,97636.77
2023-03-11T19:41:58.008Z,97627.50
2023-03-11T19:42:57.988Z,97632.58
2023-03-11T19:43:58.007Z,97633.77
2023-03-11T19:44:59.034Z,97633.52
2023-03-11T19:45:58.062Z,97632.19
2023-03-11T19:46:57.923Z,97634.17
2023-03-11T19:47:59.992Z,97635.92
2023-03-11T19:48:58.164Z,97646.30
2023-03-11T19:49:57.926Z,97641.11
2023-03-11T19:50:57.946Z,97640.91
2023-03-11T19:52:19.042Z,97634.69
2023-03-11T19:52:57.871Z,97651.34
2023-03-11T19:53:58.724Z,97649.97
2023-03-11T19:54:57.950Z,97649.28
2023-03-11T19:55:58.195Z,97655.89
2023-03-11T19:56:57.709Z,97654.85
2023-03-11T19:57:57.679Z,97656.41
2023-03-11T19:58:57.620Z,97653.36
2023-03-11T19:59:57.733Z,97653.09
2023-03-11T20:00:57.585Z,97651.73
2023-03-11T20:01:57.599Z,97653.89
2023-03-11T20:02:57.559Z,97658.47
2023-03-11T20:03:57.448Z,97656.31
2023-03-11T20:04:57.466Z,97662.03
2023-03-11T20:05:57.450Z,97657.60
2023-03-11T20:06:57.432Z,97658.84
2023-03-11T20:07:57.417Z,97659.27
2023-03-11T20:08:57.681Z,97663.33
2023-03-11T20:09:57.263Z,97663.34
2023-03-11T20:10:57.283Z,97666.81
2023-03-11T20:11:57.184Z,97666.56
2023-03-11T20:13:02.334Z,97663.59
2023-03-11T20:13:57.143Z,97670.27
2023-03-11T20:14:57.147Z,97675.11
2023-03-11T20:15:57.174Z,97676.83
2023-03-11T20:16:57.236Z,97666.62
2023-03-11T20:17:57.084Z,97666.79
2023-03-11T20:18:57.850Z,97672.06
2023-03-11T20:19:57.123Z,97671.80
2023-03-11T20:20:57.175Z,97671.34
2023-03-11T20:21:57.109Z,97670.41
2023-03-11T20:22:57.069Z,97673.60
2023-03-11T20:23:57.260Z,97669.69
2023-03-11T20:24:57.942Z,97669.07
2023-03-11T20:25:58.014Z,97673.13
2023-03-11T20:26:57.129Z,97675.91
2023-03-11T20:27:57.722Z,97670.88
2023-03-11T20:28:57.127Z,97674.03
2023-03-11T20:29:57.151Z,97674.69
2023-03-11T20:30:57.099Z,97677.47
2023-03-11T20:31:57.267Z,97680.47
2023-03-11T20:32:57.113Z,97678.38
2023-03-11T20:33:57.073Z,97678.56
2023-03-11T20:34:56.949Z,97678.28
2023-03-11T20:35:57.111Z,97683.14
2023-03-11T20:36:57.122Z,97679.12
2023-03-11T20:37:57.986Z,97675.63
2023-03-11T20:38:58.025Z,97675.61
2023-03-11T20:39:57.025Z,97678.03
2023-03-11T20:40:57.921Z,97676.25
2023-03-11T20:41:57.069Z,97684.88
2023-03-11T20:42:56.873Z,97678.80
2023-03-11T20:43:56.967Z,97680.98
2023-03-11T20:44:57.022Z,97679.05
2023-03-11T20:45:56.883Z,97683.22
2023-03-11T20:46:58.303Z,97684.33
2023-03-11T20:47:56.849Z,97688.48
2023-03-11T20:48:57.812Z,97694.36
2023-03-11T20:49:56.815Z,97684.72
2023-03-11T20:50:56.692Z,97689.23
2023-03-11T20:51:57.670Z,97692.94
2023-03-11T20:52:57.726Z,97692.05
2023-03-11T20:53:56.666Z,97693.61
2023-03-11T20:54:56.772Z,97696.14
2023-03-11T20:55:56.659Z,97698.30
2023-03-11T20:56:57.399Z,97699.73
2023-03-11T20:57:56.953Z,97694.59
2023-03-11T20:58:56.741Z,97695.79
2023-03-11T20:59:56.767Z,97700.84
2023-03-11T21:00:57.734Z,97696.82
2023-03-11T21:01:56.898Z,97696.77
2023-03-11T21:02:56.699Z,97699.05
2023-03-11T21:03:56.624Z,97703.53
2023-03-11T21:04:56.510Z,97697.91
2023-03-11T21:05:56.578Z,97699.98
2023-03-11T21:06:56.461Z,97700.13
2023-03-11T21:07:56.528Z,97698.27
2023-03-11T21:08:56.504Z,97701.53
2023-03-11T21:09:56.372Z,97699.38
2023-03-11T21:10:56.405Z,97696.16
2023-03-11T21:11:56.356Z,97695.34
2023-03-11T21:12:56.332Z,97701.69
2023-03-11T21:13:56.268Z,97700.09
2023-03-11T21:14:56.224Z,97702.25
2023-03-11T21:15:56.343Z,97703.81
2023-03-11T21:16:56.572Z,97701.53
2023-03-11T21:17:56.286Z,97705.00
2023-03-11T21:18:56.273Z,97708.81
2023-03-11T21:19:56.262Z,97710.52
2023-03-11T21:20:56.374Z,97709.38
2023-03-11T21:21:56.321Z,97709.35
2023-03-11T21:22:56.291Z,97706.03
2023-03-11T21:23:56.315Z,97707.00
2023-03-11T21:24:56.223Z,97706.53
2023-03-11T21:25:56.212Z,97709.92
2023-03-11T21:26:56.225Z,97712.22
2023-03-11T21:27:56.168Z,97710.48
2023-03-11T21:28:56.157Z,97717.14
2023-03-11T21:29:56.110Z,97714.80
2023-03-11T21:30:56.171Z,97717.98
2023-03-11T21:31:56.268Z,97710.95
2023-03-11T21:32:56.270Z,97718.03
2023-03-11T21:33:56.142Z,97720.88
2023-03-11T21:34:56.101Z,97715.03
2023-03-11T21:35:56.086Z,97717.83
2023-03-11T21:36:56.047Z,97718.59
2023-03-11T21:37:56.048Z,97706.19
2023-03-11T21:38:56.142Z,97712.85
2023-03-11T21:39:56.019Z,97713.42
2023-03-11T21:40:56.001Z,97711.52
2023-03-11T21:41:56.056Z,97712.95
2023-03-11T21:42:56.785Z,97715.55
2023-03-11T21:43:56.110Z,97718.84
2023-03-11T21:44:55.988Z,97715.84
2023-03-11T21:45:55.846Z,97721.62
2023-03-11T21:46:56.016Z,97721.01
2023-03-11T21:47:55.893Z,97720.56
2023-03-11T21:48:55.804Z,97722.64
2023-03-11T21:49:55.910Z,97725.83
2023-03-11T21:50:55.825Z,97723.73
2023-03-11T21:51:55.972Z,97723.62
2023-03-11T21:52:55.780Z,97727.14
2023-03-11T21:53:55.874Z,97718.30
2023-03-11T21:54:55.738Z,97727.88
2023-03-11T21:55:55.796Z,97721.98
2023-03-11T21:56:55.700Z,97727.43
2023-03-11T21:57:55.847Z,97722.13
2023-03-11T21:58:55.858Z,97725.19
2023-03-11T21:59:55.854Z,97720.82
2023-03-11T22:00:55.784Z,97722.64
2023-03-11T22:01:55.974Z,97718.90
2023-03-11T22:02:55.721Z,97717.29
2023-03-11T22:03:55.824Z,97716.80
2023-03-11T22:04:55.920Z,97715.18
2023-03-11T22:05:55.631Z,97714.04
2023-03-11T22:06:57.306Z,97715.70
2023-03-11T22:07:55.530Z,97713.32
2023-03-11T22:08:55.604Z,97712.35
2023-03-11T22:09:55.599Z,97711.48
2023-03-11T22:10:55.674Z,97716.09
2023-03-11T22:11:55.679Z,97712.98
2023-03-11T22:12:55.696Z,97710.19
2023-03-11T22:13:55.939Z,97717.02
2023-03-11T22:14:55.792Z,97713.31
2023-03-11T22:15:55.789Z,97712.73
2023-03-11T22:16:55.801Z,97709.79
2023-03-11T22:17:55.745Z,97713.92
2023-03-11T22:18:55.635Z,97707.58
2023-03-11T22:19:55.511Z,97711.09
2023-03-11T22:20:55.703Z,97712.09
2023-03-11T22:21:55.452Z,97707.77
2023-03-11T22:22:55.698Z,97713.31
2023-03-11T22:23:55.446Z,97711.78
2023-03-11T22:24:56.414Z,97707.30
2023-03-11T22:25:55.402Z,97703.41
2023-03-11T22:26:55.472Z,97716.75
2023-03-11T22:27:55.657Z,97707.02
2023-03-11T22:28:55.429Z,97710.12
2023-03-11T22:29:55.389Z,97713.41
2023-03-11T22:30:55.345Z,97716.94
2023-03-11T22:31:55.420Z,97713.10
2023-03-11T22:32:55.920Z,97714.48
2023-03-11T22:33:55.315Z,97714.53
2023-03-11T22:34:55.330Z,97713.34
2023-03-11T22:35:55.365Z,97717.12
2023-03-11T22:36:55.293Z,97718.79
2023-03-11T22:37:55.286Z,97719.21
2023-03-11T22:38:55.209Z,97722.33
2023-03-11T22:39:55.168Z,97723.09
2023-03-11T22:40:55.177Z,97718.28
2023-03-11T22:41:55.109Z,97718.46
2023-03-11T22:42:55.189Z,97720.54
2023-03-11T22:43:55.147Z,97727.19
2023-03-11T22:44:55.099Z,97725.67
2023-03-11T22:45:55.099Z,97730.20
2023-03-11T22:46:55.070Z,97730.80
2023-03-11T22:47:55.037Z,97731.91
2023-03-11T22:48:55.018Z,97731.36
2023-03-11T22:49:54.985Z,97728.08
2023-03-11T22:50:55.191Z,97731.19
2023-03-11T22:51:54.923Z,97729.26
2023-03-11T22:52:55.042Z,97731.44
2023-03-11T22:53:55.020Z,97729.50
2023-03-11T22:54:55.147Z,97729.67
2023-03-11T22:55:54.956Z,97728.27
2023-03-11T22:56:54.937Z,97724.42
2023-03-11T22:57:54.922Z,97725.25
2023-03-11T22:58:54.905Z,97729.03
2023-03-11T22:59:54.868Z,97724.05
2023-03-11T23:00:54.928Z,97725.52
2023-03-11T23:01:54.862Z,97721.44
2023-03-11T23:02:55.017Z,97726.73
2023-03-11T23:03:54.948Z,97722.55
2023-03-11T23:04:55.014Z,97724.62
2023-03-11T23:05:54.994Z,97727.12
2023-03-11T23:06:54.956Z,97726.64
2023-03-11T23:07:54.930Z,97726.20
2023-03-11T23:08:54.904Z,97732.78
2023-03-11T23:09:54.834Z,97730.45
2023-03-11T23:10:54.909Z,97730.35
2023-03-11T23:11:54.877Z,97728.27
2023-03-11T23:12:54.846Z,97727.77
2023-03-11T23:13:54.844Z,97731.16
2023-03-11T23:14:54.822Z,97727.25
2023-03-11T23:15:54.781Z,97723.75
2023-03-11T23:16:55.867Z,97725.73
2023-03-11T23:17:54.785Z,97730.20
2023-03-11T23:18:54.779Z,97738.86
2023-03-11T23:19:54.740Z,97734.70
2023-03-11T23:20:54.738Z,97733.22
2023-03-11T23:21:54.688Z,97728.96
2023-03-11T23:22:54.762Z,97733.09
2023-03-11T23:23:54.727Z,97731.43
2023-03-11T23:24:54.708Z,97736.00
2023-03-11T23:25:54.658Z,97737.84
2023-03-11T23:26:54.627Z,97737.32
2023-03-11T23:27:54.591Z,97740.12
2023-03-11T23:28:54.581Z,97737.26
2023-03-11T23:29:54.537Z,97737.09
2023-03-11T23:30:54.547Z,97740.27
2023-03-11T23:31:54.506Z,97745.33
2023-03-11T23:32:54.551Z,97739.13
2023-03-11T23:33:54.450Z,97738.52
2023-03-11T23:34:54.411Z,97738.38
2023-03-11T23:35:54.415Z,97734.67
2023-03-11T23:36:55.397Z,97738.48
2023-03-11T23:37:54.308Z,97740.73
2023-03-11T23:38:54.312Z,97740.66
2023-03-11T23:39:54.297Z,97744.69
2023-03-11T23:40:54.264Z,97739.91
2023-03-11T23:41:54.232Z,97739.77
2023-03-11T23:42:54.214Z,97743.79
2023-03-11T23:43:54.264Z,97743.97
2023-03-11T23:44:54.152Z,97740.99
2023-03-11T23:45:54.140Z,97741.69
2023-03-11T23:46:54.093Z,97741.34
2023-03-11T23:47:54.076Z,97739.92
2023-03-11T23:48:54.052Z,97740.62
2023-03-11T23:49:54.014Z,97741.23
2023-03-11T23:50:53.979Z,97739.06
2023-03-11T23:51:53.960Z,97741.14
2023-03-11T23:52:53.946Z,97739.38
2023-03-11T23:53:53.930Z,97740.80
2023-03-11T23:54:53.925Z,97738.72
2023-03-11T23:55:53.872Z,97743.92
2023-03-11T23:56:53.831Z,97742.33
2023-03-11T23:57:53.886Z,97743.61
2023-03-11T23:58:53.845Z,97742.82
2023-03-11T23:59:53.790Z,97748.88
